Time;durP1;ratioP1;P1;durP2;ratioP2;P2;SDS_P1;SDS_P2;PMS_P1;PMS_P2;Temp;Humidity;BMP_temperature;BMP_pressure;BME280_temperature;BME280_humidity;BME280_pressure;Samples;Min_cycle;Max_cycle;Signal;HPM_P1;HPM_P2
2022/11/01 00:00:58;;;;;;;17.98;6.97;;;13.60;99.90;;;;;;4219065;28;20036;-91
2022/11/01 00:02:59;;;;;;;17.45;6.80;;;13.60;99.90;;;;;;4218206;28;20047;-91
2022/11/01 00:05:00;;;;;;;16.00;8.07;;;13.60;99.90;;;;;;4218476;28;20521;-92
2022/11/01 00:07:01;;;;;;;17.67;6.88;;;13.60;99.90;;;;;;4223081;28;20065;-91
2022/11/01 00:09:03;;;;;;;15.95;7.20;;;13.60;99.90;;;;;;4217344;28;20109;-91
2022/11/01 00:11:07;;;;;;;22.48;6.57;;;13.60;99.90;;;;;;4217993;28;20052;-91
2022/11/01 00:13:08;;;;;;;22.60;7.07;;;13.60;99.90;;;;;;4234499;28;20100;-91
2022/11/01 00:15:08;;;;;;;21.33;8.13;;;13.60;99.90;;;;;;4235850;28;20517;-91
2022/11/01 00:17:10;;;;;;;18.70;7.22;;;13.90;99.90;;;;;;4220575;28;20143;-91
2022/11/01 00:19:11;;;;;;;14.77;7.05;;;13.60;99.90;;;;;;4218356;28;20441;-91
2022/11/01 00:21:13;;;;;;;13.10;6.55;;;13.70;99.90;;;;;;4217562;28;20055;-91
2022/11/01 00:23:13;;;;;;;14.77;7.25;;;13.70;99.90;;;;;;4217410;28;20102;-91
2022/11/01 00:25:14;;;;;;;18.00;6.85;;;13.70;99.90;;;;;;4201460;28;20041;-91
2022/11/01 00:27:16;;;;;;;26.08;8.18;;;13.70;99.90;;;;;;4219406;28;20097;-92
2022/11/01 00:29:17;;;;;;;16.42;6.65;;;13.80;99.90;;;;;;4232841;28;20051;-92
2022/11/01 00:31:19;;;;;;;17.20;7.18;;;13.70;99.90;;;;;;4218750;28;20051;-92
2022/11/01 00:33:20;;;;;;;18.02;6.68;;;13.70;99.90;;;;;;4234868;28;20044;-92
2022/11/01 00:35:22;;;;;;;15.23;6.63;;;13.70;99.90;;;;;;4235608;28;20432;-91
2022/11/01 00:37:23;;;;;;;11.23;6.07;;;13.60;99.90;;;;;;4234825;28;20157;-91
2022/11/01 00:39:25;;;;;;;16.55;6.72;;;13.70;99.90;;;;;;4235546;28;20413;-91
2022/11/01 00:41:26;;;;;;;20.70;7.60;;;13.60;99.90;;;;;;4236006;28;20101;-90
2022/11/01 00:43:27;;;;;;;15.85;7.30;;;13.60;99.90;;;;;;4219149;28;20043;-91
2022/11/01 00:45:27;;;;;;;20.67;7.47;;;13.60;99.90;;;;;;4219951;28;20052;-91
2022/11/01 00:47:28;;;;;;;19.42;6.85;;;13.60;99.90;;;;;;4243336;28;20047;-92
2022/11/01 00:49:30;;;;;;;20.55;7.72;;;13.60;99.90;;;;;;4235756;28;20036;-91
2022/11/01 00:51:32;;;;;;;21.35;6.75;;;13.60;99.90;;;;;;4236220;28;20028;-91
2022/11/01 00:53:33;;;;;;;13.82;6.45;;;13.60;99.90;;;;;;4252432;28;20052;-90
2022/11/01 00:55:34;;;;;;;19.35;7.40;;;14.00;99.90;;;;;;4226609;28;20033;-90
2022/11/01 00:57:35;;;;;;;15.45;7.07;;;13.60;99.90;;;;;;4235736;28;20047;-90
2022/11/01 00:59:37;;;;;;;26.77;7.05;;;13.60;99.90;;;;;;4249270;28;20074;-91
2022/11/01 01:01:37;;;;;;;16.52;7.05;;;13.70;99.90;;;;;;4239482;28;20036;-90
2022/11/01 01:03:38;;;;;;;18.60;6.93;;;13.70;99.90;;;;;;4239341;28;20076;-91
2022/11/01 01:05:39;;;;;;;17.50;6.72;;;13.70;99.90;;;;;;4222244;28;20059;-91
2022/11/01 01:07:39;;;;;;;20.27;6.82;;;13.60;99.90;;;;;;4239915;28;20503;-90
2022/11/01 01:09:41;;;;;;;13.82;5.90;;;13.70;99.90;;;;;;4221381;28;20071;-90
2022/11/01 01:11:44;;;;;;;16.40;6.97;;;13.70;99.90;;;;;;4237813;28;20043;-90
2022/11/01 01:13:50;;;;;;;14.18;6.88;;;13.70;99.90;;;;;;4236949;28;20135;-91
2022/11/01 01:15:54;;;;;;;;;;;13.70;99.90;;;;;;4249523;27;20066;-90
2022/11/01 01:17:57;;;;;;;16.33;6.75;;;13.60;99.90;;;;;;4217445;28;19916;-90
2022/11/01 01:19:58;;;;;;;15.82;7.75;;;13.60;99.90;;;;;;4229509;28;20075;-91
2022/11/01 01:22:00;;;;;;;20.55;6.95;;;13.60;99.90;;;;;;4233255;28;20489;-90
2022/11/01 01:24:01;;;;;;;22.02;6.38;;;13.70;99.90;;;;;;4235489;28;20044;-91
2022/11/01 01:26:10;;;;;;;17.95;6.20;;;13.70;99.90;;;;;;4203018;28;20045;-90
2022/11/01 01:28:10;;;;;;;12.93;6.27;;;13.60;99.90;;;;;;4222447;28;20071;-90
2022/11/01 01:30:11;;;;;;;16.48;6.45;;;13.70;99.90;;;;;;4216028;28;20044;-90
2022/11/01 01:32:18;;;;;;;16.10;7.68;;;13.70;99.90;;;;;;4216753;28;20227;-90
2022/11/01 01:34:19;;;;;;;13.95;7.22;;;13.70;99.90;;;;;;4234089;28;20051;-90
2022/11/01 01:36:20;;;;;;;21.00;6.45;;;13.70;99.90;;;;;;4234760;28;20114;-90
2022/11/01 01:38:20;;;;;;;13.77;7.35;;;13.70;99.90;;;;;;4235197;28;20065;-90
2022/11/01 01:40:21;;;;;;;13.98;5.75;;;13.70;99.90;;;;;;4215879;28;20069;-91
2022/11/01 01:42:29;;;;;;;14.57;6.95;;;13.70;99.90;;;;;;4234038;28;20597;-90
2022/11/01 01:44:51;;;;;;;11.75;5.63;;;13.70;99.90;;;;;;4233086;28;20043;-90
2022/11/01 01:46:52;;;;;;;14.93;6.97;;;13.80;99.90;;;;;;4232820;28;20130;-91
2022/11/01 01:48:58;;;;;;;20.73;7.32;;;13.80;99.90;;;;;;4231484;28;20052;-91
2022/11/01 01:51:03;;;;;;;19.48;6.05;;;13.80;99.90;;;;;;4200189;28;20052;-91
2022/11/01 01:53:10;;;;;;;15.98;6.10;;;13.80;99.90;;;;;;4229194;28;20077;-90
2022/11/01 01:55:13;;;;;;;21.95;6.60;;;13.80;99.90;;;;;;4233414;28;20453;-90
2022/11/01 01:57:13;;;;;;;12.57;5.47;;;13.80;99.90;;;;;;4216067;28;20056;-90
2022/11/01 01:59:15;;;;;;;15.65;6.35;;;13.80;99.90;;;;;;4219432;28;20125;-90
2022/11/01 02:01:17;;;;;;;14.30;6.07;;;13.80;99.90;;;;;;4199914;28;20102;-90
2022/11/01 02:03:19;;;;;;;15.35;5.97;;;13.80;99.90;;;;;;4198940;28;20063;-90
2022/11/01 02:05:48;;;;;;;12.32;5.50;;;13.80;99.90;;;;;;4216743;28;20149;-91
2022/11/01 02:07:50;;;;;;;16.15;6.82;;;13.80;99.90;;;;;;4229314;28;20489;-91
2022/11/01 02:09:51;;;;;;;12.38;4.90;;;13.80;99.90;;;;;;4232905;28;20144;-91
2022/11/01 02:11:52;;;;;;;12.98;5.55;;;13.80;99.90;;;;;;4233273;28;20039;-91
2022/11/01 02:13:53;;;;;;;15.82;6.47;;;13.80;99.90;;;;;;4215729;28;20105;-90
2022/11/01 02:16:31;;;;;;;14.23;5.68;;;13.80;99.90;;;;;;4229122;28;20048;-91
2022/11/01 02:18:40;;;;;;;14.77;6.15;;;13.80;99.90;;;;;;4216032;28;20048;-90
2022/11/01 02:21:07;;;;;;;;;;;13.80;99.90;;;;;;4234074;28;20525;-91
2022/11/01 02:23:14;;;;;;;11.60;4.60;;;13.80;99.90;;;;;;4201275;28;19927;-90
2022/11/01 02:25:21;;;;;;;13.55;5.20;;;13.80;99.90;;;;;;4204894;28;20055;-91
2022/11/01 02:27:27;;;;;;;14.55;6.18;;;13.80;99.90;;;;;;4201073;28;20434;-91
2022/11/01 02:30:02;;;;;;;15.30;5.30;;;13.80;99.90;;;;;;4232812;28;20055;-90
2022/11/01 02:32:17;;;;;;;15.27;5.50;;;13.80;99.90;;;;;;4216546;28;20080;-91
2022/11/01 02:34:32;;;;;;;12.40;5.68;;;13.80;99.90;;;;;;4216272;28;20479;-91
2022/11/01 02:36:42;;;;;;;14.73;5.68;;;13.80;99.90;;;;;;4234353;28;20097;-91
2022/11/01 02:38:50;;;;;;;16.73;6.45;;;13.80;99.90;;;;;;4236360;28;20065;-91
2022/11/01 02:41:16;;;;;;;15.80;5.47;;;13.80;99.90;;;;;;4222080;28;20044;-91
2022/11/01 02:43:48;;;;;;;17.50;5.13;;;13.80;99.90;;;;;;4221869;28;20055;-91
2022/11/01 02:45:49;;;;;;;14.18;5.50;;;13.80;99.90;;;;;;4232397;28;20051;-91
2022/11/01 02:47:50;;;;;;;15.27;5.65;;;13.80;99.90;;;;;;4217660;28;20047;-91
2022/11/01 02:49:58;;;;;;;13.93;5.25;;;13.80;99.90;;;;;;4223215;28;20036;-91
2022/11/01 02:52:02;;;;;;;15.00;4.83;;;13.80;99.90;;;;;;4216899;28;20577;-91
2022/11/01 02:54:09;;;;;;;12.85;5.97;;;13.80;99.90;;;;;;4217747;28;20058;-91
2022/11/01 02:56:11;;;;;;;13.18;5.80;;;13.80;99.90;;;;;;4230830;28;20082;-90
2022/11/01 02:58:14;;;;;;;12.70;5.35;;;13.80;99.90;;;;;;4230591;28;20044;-90
2022/11/01 03:00:20;;;;;;;17.75;6.85;;;13.80;99.90;;;;;;4201792;28;20494;-90
2022/11/01 03:02:38;;;;;;;11.50;5.93;;;13.80;99.90;;;;;;4235619;28;20035;-90
2022/11/01 03:04:39;;;;;;;16.25;5.00;;;13.80;99.90;;;;;;4226499;28;20052;-90
2022/11/01 03:06:45;;;;;;;23.55;7.32;;;13.80;99.90;;;;;;4220784;28;20047;-90
2022/11/01 03:08:48;;;;;;;11.73;4.55;;;13.90;99.90;;;;;;4236150;28;20098;-91
2022/11/01 03:10:53;;;;;;;14.30;6.00;;;13.90;99.90;;;;;;4235359;28;20047;-91
2022/11/01 03:13:09;;;;;;;10.10;4.50;;;13.90;99.90;;;;;;4218584;28;20468;-91
2022/11/01 03:15:26;;;;;;;15.98;4.65;;;13.90;99.90;;;;;;4219616;28;20111;-90
2022/11/01 03:17:26;;;;;;;13.70;5.10;;;13.90;99.90;;;;;;4219652;28;20044;-90
2022/11/01 03:19:51;;;;;;;16.52;5.40;;;13.90;99.90;;;;;;4220603;28;20077;-90
2022/11/01 03:22:04;;;;;;;10.05;4.65;;;13.90;99.90;;;;;;4240226;28;20040;-90
2022/11/01 03:24:21;;;;;;;11.57;4.88;;;13.90;99.90;;;;;;4241025;28;20447;-91
2022/11/01 03:26:25;;;;;;;15.27;5.32;;;14.00;99.90;;;;;;4245171;28;20517;-89
2022/11/01 03:28:35;;;;;;;12.68;5.20;;;14.00;99.90;;;;;;4244969;28;20157;-90
2022/11/01 03:30:41;;;;;;;13.73;5.68;;;14.00;99.90;;;;;;4246425;28;20056;-90
2022/11/01 03:32:53;;;;;;;12.70;4.72;;;14.00;99.90;;;;;;4246258;28;20047;-90
2022/11/01 03:34:58;;;;;;;16.23;6.63;;;14.00;99.90;;;;;;4238548;28;20075;-90
2022/11/01 03:37:03;;;;;;;12.07;4.57;;;14.00;99.90;;;;;;4232018;28;20117;-89
2022/11/01 03:39:36;;;;;;;12.77;4.65;;;14.10;99.90;;;;;;4230698;28;20052;-90
2022/11/01 03:41:45;;;;;;;13.25;5.05;;;14.10;99.90;;;;;;4211954;28;20147;-90
2022/11/01 03:43:46;;;;;;;11.55;4.75;;;14.20;99.90;;;;;;4207205;28;20049;-88
2022/11/01 03:45:48;;;;;;;14.65;5.10;;;14.20;99.90;;;;;;4228480;28;20047;-88
2022/11/01 03:47:49;;;;;;;19.02;4.72;;;14.20;99.90;;;;;;4227436;28;20117;-87
2022/11/01 03:50:19;;;;;;;11.15;4.65;;;14.20;99.90;;;;;;4226160;28;20099;-88
2022/11/01 03:52:20;;;;;;;14.15;5.13;;;14.30;99.90;;;;;;4219503;28;20041;-88
2022/11/01 03:54:23;;;;;;;17.00;5.60;;;14.30;99.90;;;;;;4225374;28;20459;-90
2022/11/01 03:56:29;;;;;;;10.88;4.47;;;14.30;99.90;;;;;;4230390;28;20051;-90
2022/11/01 03:58:45;;;;;;;13.23;4.78;;;14.30;99.90;;;;;;4257214;27;20050;-89
2022/11/01 04:00:47;;;;;;;19.70;4.82;;;14.30;99.90;;;;;;4238065;28;20051;-90
2022/11/01 04:02:50;;;;;;;8.02;4.40;;;14.30;99.90;;;;;;4223045;28;20055;-89
2022/11/01 04:04:50;;;;;;;15.20;4.20;;;14.30;99.90;;;;;;4220587;28;20097;-90
2022/11/01 04:06:51;;;;;;;18.25;4.47;;;14.30;99.90;;;;;;4211521;28;20054;-89
2022/11/01 04:08:52;;;;;;;19.63;5.10;;;14.40;99.90;;;;;;4232819;28;20122;-90
2022/11/01 04:10:59;;;;;;;11.18;4.55;;;14.40;99.90;;;;;;4220350;28;20494;-90
2022/11/01 04:13:00;;;;;;;11.60;4.35;;;14.40;99.90;;;;;;4238019;28;20039;-90
2022/11/01 04:22:09;;;;;;;11.05;4.22;;;14.50;99.90;;;;;;4224788;28;20043;-91
2022/11/01 04:24:10;;;;;;;10.57;4.53;;;14.60;99.90;;;;;;4219229;28;20076;-91
2022/11/01 04:26:14;;;;;;;8.95;4.07;;;14.60;99.90;;;;;;4219238;28;20123;-91
2022/11/01 04:28:14;;;;;;;11.50;3.90;;;14.60;99.90;;;;;;4223833;28;20052;-91
2022/11/01 04:30:15;;;;;;;12.40;4.38;;;14.60;99.90;;;;;;4221431;28;20050;-91
2022/11/01 04:32:16;;;;;;;11.27;4.18;;;14.60;99.90;;;;;;4235559;28;20099;-91
2022/11/01 04:34:41;;;;;;;15.40;4.18;;;14.70;99.90;;;;;;4219415;28;20079;-91
2022/11/01 04:36:41;;;;;;;11.80;3.95;;;14.70;99.90;;;;;;4236960;28;20106;-92
2022/11/01 04:38:43;;;;;;;10.52;3.20;;;14.70;99.90;;;;;;4236535;28;20108;-92
2022/11/01 04:40:45;;;;;;;8.98;3.65;;;14.80;99.90;;;;;;4235151;28;20041;-90
2022/11/01 04:42:45;;;;;;;10.32;3.70;;;14.80;99.90;;;;;;4236529;28;20054;-91
2022/11/01 04:44:46;;;;;;;10.95;4.18;;;14.80;99.90;;;;;;4235319;28;20047;-91
2022/11/01 04:46:48;;;;;;;9.82;3.47;;;14.80;99.90;;;;;;4235724;28;20044;-91
2022/11/01 04:48:50;;;;;;;9.77;3.67;;;14.90;99.90;;;;;;4236000;28;20047;-90
2022/11/01 04:50:51;;;;;;;11.32;3.30;;;14.90;99.90;;;;;;4235203;28;20040;-92
2022/11/01 04:52:51;;;;;;;11.73;4.25;;;14.90;99.90;;;;;;4236319;28;20168;-91
2022/11/01 04:54:52;;;;;;;5.88;3.47;;;14.90;99.90;;;;;;4235891;28;20054;-92
2022/11/01 04:56:53;;;;;;;11.07;4.07;;;14.90;99.90;;;;;;4236064;28;20053;-91
2022/11/01 04:58:53;;;;;;;13.82;4.15;;;14.90;99.90;;;;;;4235523;28;20083;-91
2022/11/01 05:00:54;;;;;;;8.98;3.60;;;15.00;99.90;;;;;;4235044;28;20043;-91
2022/11/01 05:03:03;;;;;;;7.97;3.00;;;14.90;99.90;;;;;;4235724;28;20485;-91
2022/11/01 05:05:09;;;;;;;7.28;3.17;;;14.90;99.90;;;;;;4204812;28;20052;-91
2022/11/01 05:07:10;;;;;;;9.73;3.45;;;15.00;99.90;;;;;;4240150;27;20042;-91
2022/11/01 05:09:10;;;;;;;8.82;3.35;;;15.00;99.90;;;;;;4234943;28;20062;-90
2022/11/01 05:11:11;;;;;;;11.05;4.07;;;15.00;99.90;;;;;;4234054;28;20055;-91
2022/11/01 05:13:12;;;;;;;8.52;3.63;;;15.00;99.90;;;;;;4234037;28;20051;-91
2022/11/01 05:15:13;;;;;;;7.03;3.05;;;15.00;99.90;;;;;;4234484;28;20075;-91
2022/11/01 05:17:14;;;;;;;11.30;3.25;;;15.10;99.90;;;;;;4220329;28;20052;-91
2022/11/01 05:19:15;;;;;;;11.40;4.05;;;15.20;99.90;;;;;;4217480;28;20074;-91
2022/11/01 05:21:16;;;;;;;9.23;2.92;;;15.20;99.90;;;;;;4217355;28;20449;-91
2022/11/01 05:23:18;;;;;;;9.98;3.13;;;14.70;99.90;;;;;;4217347;28;20544;-91
2022/11/01 05:25:18;;;;;;;13.60;2.72;;;15.30;99.90;;;;;;4216501;28;20494;-91
2022/11/01 05:27:19;;;;;;;9.88;3.35;;;15.30;99.90;;;;;;4217892;28;20044;-91
2022/11/01 05:29:21;;;;;;;8.32;3.10;;;14.70;99.90;;;;;;4200443;28;20538;-91
2022/11/01 05:31:22;;;;;;;9.55;3.42;;;15.40;99.90;;;;;;4217599;28;20048;-92
2022/11/01 05:33:22;;;;;;;14.23;3.45;;;15.40;99.90;;;;;;4219330;28;20525;-91
2022/11/01 05:35:23;;;;;;;10.68;2.95;;;15.40;99.90;;;;;;4219303;28;20059;-91
2022/11/01 05:37:25;;;;;;;6.38;2.85;;;15.50;99.90;;;;;;4225130;28;20035;-91
2022/11/01 05:39:26;;;;;;;8.77;2.60;;;15.40;99.90;;;;;;4217551;28;20514;-90
2022/11/01 05:41:28;;;;;;;7.30;2.80;;;15.50;99.90;;;;;;4216786;28;20047;-91
2022/11/01 05:43:29;;;;;;;6.25;3.20;;;15.50;99.90;;;;;;4234559;27;20047;-91
2022/11/01 05:45:29;;;;;;;6.47;2.25;;;15.60;99.90;;;;;;4234900;28;20071;-90
2022/11/01 05:47:32;;;;;;;5.82;2.35;;;15.60;99.90;;;;;;4233869;28;20108;-90
2022/11/01 05:49:33;;;;;;;7.95;2.45;;;15.70;99.90;;;;;;4234914;28;20094;-90
2022/11/01 05:51:33;;;;;;;7.45;2.88;;;15.70;99.90;;;;;;4232438;28;20552;-90
2022/11/01 05:53:41;;;;;;;8.90;2.72;;;15.60;99.90;;;;;;4221199;28;20052;-89
2022/11/01 05:55:42;;;;;;;3.05;1.73;;;15.70;99.90;;;;;;4225469;28;20059;-90
2022/11/01 05:57:42;;;;;;;7.30;2.17;;;15.60;99.90;;;;;;4220135;28;20036;-90
2022/11/01 05:59:43;;;;;;;6.47;2.05;;;15.60;99.90;;;;;;4235254;28;20039;-90
2022/11/01 06:01:44;;;;;;;7.78;1.60;;;15.60;99.90;;;;;;4217175;28;20445;-90
2022/11/01 06:03:48;;;;;;;7.93;1.80;;;15.60;99.90;;;;;;4235245;28;20049;-90
2022/11/01 06:05:49;;;;;;;2.40;1.10;;;15.60;99.90;;;;;;4235737;28;20097;-90
2022/11/01 06:07:50;;;;;;;3.78;0.93;;;15.30;99.90;;;;;;4237312;28;20047;-91
2022/11/01 06:09:51;;;;;;;9.27;1.10;;;15.50;99.90;;;;;;4219833;28;20047;-90
2022/11/01 06:11:52;;;;;;;3.22;0.93;;;15.50;99.90;;;;;;4235352;28;20128;-91
2022/11/01 06:13:57;;;;;;;1.98;0.82;;;15.40;99.90;;;;;;4207455;28;20048;-89
2022/11/01 06:16:04;;;;;;;4.57;1.00;;;15.40;99.90;;;;;;4204716;28;20530;-89
2022/11/01 06:18:05;;;;;;;2.22;0.75;;;15.30;99.90;;;;;;4235465;28;20039;-88
2022/11/01 06:20:06;;;;;;;3.58;0.90;;;15.30;99.90;;;;;;4235432;28;20055;-90
2022/11/01 06:22:08;;;;;;;7.15;0.80;;;15.20;99.90;;;;;;4232854;28;20039;-90
2022/11/01 06:24:12;;;;;;;6.65;0.80;;;15.10;99.90;;;;;;4237088;28;20036;-89
2022/11/01 06:26:18;;;;;;;5.75;0.90;;;15.10;99.90;;;;;;4222346;28;20048;-90
2022/11/01 06:28:19;;;;;;;1.38;0.68;;;15.00;99.90;;;;;;4242453;27;20039;-90
2022/11/01 06:30:20;;;;;;;4.93;1.40;;;15.00;99.90;;;;;;4233974;28;20050;-90
2022/11/01 06:32:20;;;;;;;2.92;0.60;;;14.90;99.90;;;;;;4237399;28;20050;-90
2022/11/01 06:34:21;;;;;;;4.03;0.90;;;14.90;99.90;;;;;;4237413;28;20049;-90
2022/11/01 06:36:22;;;;;;;2.80;0.73;;;14.90;99.90;;;;;;4233514;28;20066;-90
2022/11/01 06:38:25;;;;;;;1.70;0.70;;;14.80;99.90;;;;;;4216827;28;20047;-91
2022/11/01 06:40:25;;;;;;;3.80;0.70;;;14.80;99.90;;;;;;4235171;28;20044;-90
2022/11/01 06:42:26;;;;;;;3.70;0.40;;;14.70;99.90;;;;;;4233489;28;20131;-90
2022/11/01 06:44:28;;;;;;;2.55;0.65;;;14.70;99.90;;;;;;4235224;28;20097;-90
2022/11/01 06:46:28;;;;;;;3.92;0.90;;;14.60;99.90;;;;;;4217692;28;20131;-90
2022/11/01 06:48:29;;;;;;;5.05;1.05;;;14.60;99.90;;;;;;4233291;28;20054;-90
2022/11/01 06:50:31;;;;;;;2.67;0.47;;;14.60;99.90;;;;;;4216490;28;20097;-90
2022/11/01 06:52:32;;;;;;;4.57;0.60;;;14.50;99.90;;;;;;4235504;28;20051;-90
2022/11/01 06:54:34;;;;;;;4.15;0.80;;;14.80;99.90;;;;;;4233627;28;20477;-90
2022/11/01 06:56:34;;;;;;;3.15;0.60;;;14.50;99.90;;;;;;4200627;28;20048;-91
2022/11/01 06:58:35;;;;;;;10.75;1.20;;;14.50;99.90;;;;;;4225485;28;20083;-89
2022/11/01 07:00:37;;;;;;;1.95;0.50;;;14.40;99.90;;;;;;4234473;28;20039;-90
2022/11/01 07:02:37;;;;;;;10.75;0.90;;;14.40;99.90;;;;;;4233686;28;20038;-90
2022/11/01 07:04:38;;;;;;;2.38;0.85;;;14.30;99.90;;;;;;4234562;28;20059;-90
2022/11/01 07:06:40;;;;;;;3.58;0.88;;;14.30;99.90;;;;;;4235002;28;20039;-90
2022/11/01 07:08:40;;;;;;;4.13;1.55;;;14.30;99.90;;;;;;4234238;28;20126;-91
2022/11/01 07:10:42;;;;;;;1.13;0.55;;;14.30;99.90;;;;;;4217755;28;20074;-90
2022/11/01 07:12:43;;;;;;;5.25;0.70;;;14.30;99.90;;;;;;4234419;28;20123;-91
2022/11/01 07:14:43;;;;;;;3.50;1.08;;;14.30;99.90;;;;;;4234624;28;20044;-89
2022/11/01 07:16:46;;;;;;;10.77;1.13;;;14.20;99.90;;;;;;4234348;28;20085;-91
2022/11/01 07:18:48;;;;;;;8.68;1.25;;;14.00;99.90;;;;;;4232715;28;20031;-90
2022/11/01 07:20:49;;;;;;;4.97;0.75;;;14.20;99.90;;;;;;4201298;28;20072;-90
2022/11/01 07:23:00;;;;;;;5.03;0.93;;;14.20;99.90;;;;;;4229199;28;20044;-90
2022/11/01 07:25:01;;;;;;;2.25;0.52;;;14.10;99.90;;;;;;4217315;28;20044;-90
2022/11/01 07:27:02;;;;;;;5.63;0.75;;;14.10;99.90;;;;;;4215910;28;20123;-90
2022/11/01 07:29:03;;;;;;;9.50;1.00;;;14.10;99.90;;;;;;4234396;28;20040;-91
2022/11/01 07:31:05;;;;;;;7.38;1.27;;;14.10;99.90;;;;;;4217021;28;20082;-91
2022/11/01 07:33:07;;;;;;;3.55;0.85;;;14.10;99.90;;;;;;4235669;28;20050;-91
2022/11/01 07:35:08;;;;;;;5.35;1.20;;;14.20;99.90;;;;;;4236739;28;20524;-90
2022/11/01 07:37:10;;;;;;;4.28;0.77;;;14.20;99.50;;;;;;4235856;28;20070;-91
2022/11/01 07:39:11;;;;;;;3.08;1.10;;;14.20;99.50;;;;;;4244794;28;20044;-91
2022/11/01 07:41:18;;;;;;;7.72;1.10;;;14.30;99.50;;;;;;4226566;28;20047;-89
2022/11/01 07:43:19;;;;;;;6.80;1.40;;;14.30;98.80;;;;;;4235708;28;20055;-91
2022/11/01 07:45:21;;;;;;;6.93;1.00;;;14.30;99.00;;;;;;4202059;28;20045;-90
2022/11/01 07:47:22;;;;;;;6.03;0.88;;;14.30;99.00;;;;;;4232360;28;20081;-91
2022/11/01 07:49:24;;;;;;;4.45;0.95;;;14.40;98.40;;;;;;4234674;28;20083;-90
2022/11/01 07:51:25;;;;;;;7.95;1.10;;;14.40;98.00;;;;;;4232684;28;20126;-91
2022/11/01 07:53:27;;;;;;;6.38;1.35;;;14.40;98.00;;;;;;4231843;28;20122;-93
2022/11/01 07:55:30;;;;;;;3.13;1.30;;;14.40;97.60;;;;;;4233414;28;20044;-91
2022/11/01 07:57:37;;;;;;;9.32;1.42;;;14.50;97.50;;;;;;4233004;28;20040;-91
2022/11/01 07:59:37;;;;;;;7.10;1.10;;;14.50;97.10;;;;;;4232247;28;20533;-91
2022/11/01 08:01:38;;;;;;;12.32;1.30;;;14.60;97.60;;;;;;4223319;28;20105;-91
2022/11/01 08:03:40;;;;;;;9.32;1.25;;;14.70;97.50;;;;;;4234321;28;20028;-91
2022/11/01 08:05:43;;;;;;;6.18;0.93;;;14.90;96.40;;;;;;4232566;28;20047;-91
2022/11/01 08:07:45;;;;;;;2.80;0.95;;;14.80;97.20;;;;;;4231566;28;20047;-91
2022/11/01 08:09:47;;;;;;;6.53;0.70;;;14.80;97.10;;;;;;4231492;28;20112;-89
2022/11/01 08:11:48;;;;;;;8.95;1.20;;;14.80;97.00;;;;;;4231755;28;20056;-91
2022/11/01 08:13:50;;;;;;;4.05;0.80;;;14.80;97.10;;;;;;4221211;28;20109;-90
2022/11/01 08:15:52;;;;;;;5.40;1.48;;;14.80;97.00;;;;;;4203468;28;20091;-91
2022/11/01 08:17:56;;;;;;;7.13;1.27;;;14.80;96.90;;;;;;4237095;28;20063;-90
2022/11/01 08:19:56;;;;;;;9.80;0.98;;;14.70;96.60;;;;;;4217358;28;20079;-90
2022/11/01 08:21:58;;;;;;;6.57;1.25;;;14.70;97.40;;;;;;4233751;28;20541;-91
2022/11/01 08:23:59;;;;;;;7.43;0.77;;;14.80;96.80;;;;;;4216647;28;20056;-90
2022/11/01 08:26:02;;;;;;;9.82;1.40;;;14.90;96.90;;;;;;4233985;28;20087;-90
2022/11/01 08:28:07;;;;;;;9.93;1.30;;;14.90;97.30;;;;;;4217010;28;20044;-91
2022/11/01 08:30:09;;;;;;;7.30;1.40;;;14.90;97.20;;;;;;4216538;28;20529;-91
2022/11/01 08:32:09;;;;;;;10.15;1.27;;;14.90;97.20;;;;;;4234515;28;20123;-91
2022/11/01 08:34:10;;;;;;;7.90;1.33;;;14.90;97.20;;;;;;4216671;28;20044;-90
2022/11/01 08:36:11;;;;;;;10.45;1.45;;;14.80;96.80;;;;;;4218648;28;20494;-90
2022/11/01 08:38:12;;;;;;;8.35;1.33;;;14.80;96.80;;;;;;4231787;28;20043;-90
2022/11/01 08:40:12;;;;;;;14.27;1.17;;;14.80;97.10;;;;;;4235677;28;20064;-90
2022/11/01 08:42:14;;;;;;;7.82;1.20;;;14.80;97.00;;;;;;4218227;28;20048;-91
2022/11/01 08:44:18;;;;;;;6.13;1.67;;;14.80;97.30;;;;;;4233550;28;20050;-90
2022/11/01 08:46:20;;;;;;;5.63;0.90;;;14.80;97.10;;;;;;4217829;28;20048;-90
2022/11/01 08:48:22;;;;;;;15.07;1.40;;;14.80;96.80;;;;;;4216791;28;20067;-90
2022/11/01 08:50:22;;;;;;;12.70;1.27;;;14.70;96.90;;;;;;4234411;28;20044;-90
2022/11/01 08:52:24;;;;;;;8.60;1.60;;;14.70;96.40;;;;;;4234386;28;20553;-89
2022/11/01 08:54:25;;;;;;;11.50;1.42;;;14.70;96.50;;;;;;4233268;28;20129;-90
2022/11/01 08:56:26;;;;;;;7.63;1.38;;;14.70;96.60;;;;;;4234435;28;20047;-90
2022/11/01 08:58:28;;;;;;;11.85;1.55;;;14.70;96.80;;;;;;4233057;28;20043;-90
2022/11/01 09:00:29;;;;;;;5.65;1.13;;;14.60;96.60;;;;;;4235350;28;20028;-90
2022/11/01 09:02:31;;;;;;;6.32;1.48;;;14.60;96.50;;;;;;4216846;28;20068;-90
2022/11/01 09:04:33;;;;;;;8.60;2.35;;;14.60;95.90;;;;;;4230764;28;20054;-91
2022/11/01 09:06:34;;;;;;;8.77;1.40;;;14.60;96.00;;;;;;4233557;28;20058;-90
2022/11/01 09:08:34;;;;;;;11.48;2.15;;;14.60;96.30;;;;;;4255505;27;20047;-90
2022/11/01 09:10:36;;;;;;;11.45;2.22;;;14.60;96.40;;;;;;4240459;28;20066;-90
2022/11/01 09:12:38;;;;;;;11.15;1.50;;;14.60;96.40;;;;;;4240932;28;20043;-91
2022/11/01 09:14:39;;;;;;;14.98;1.65;;;14.70;96.00;;;;;;4226428;28;20501;-89
2022/11/01 09:16:39;;;;;;;13.80;2.63;;;15.30;95.90;;;;;;4233690;28;20121;-90
2022/11/01 09:18:41;;;;;;;11.43;3.05;;;16.20;95.00;;;;;;4219714;28;20485;-91
2022/11/01 09:20:51;;;;;;;23.08;1.83;;;16.90;94.10;;;;;;4235968;28;20086;-90
2022/11/01 09:22:52;;;;;;;12.45;2.10;;;17.30;93.00;;;;;;4234002;28;20077;-90
2022/11/01 09:24:55;;;;;;;9.73;1.88;;;17.50;92.50;;;;;;4231833;28;20509;-90
2022/11/01 09:26:57;;;;;;;14.70;1.92;;;17.40;92.70;;;;;;4217001;28;20494;-90
2022/11/01 09:28:58;;;;;;;11.43;1.80;;;16.90;92.30;;;;;;4217944;28;20093;-90
2022/11/01 09:31:07;;;;;;;12.18;1.48;;;17.00;91.90;;;;;;4221460;28;20047;-91
2022/11/01 09:33:10;;;;;;;9.85;2.25;;;17.20;92.40;;;;;;4233758;28;20083;-90
2022/11/01 09:35:12;;;;;;;10.38;1.42;;;16.90;92.30;;;;;;4234140;28;20044;-90
2022/11/01 09:37:12;;;;;;;14.38;2.28;;;16.90;92.90;;;;;;4237809;28;20126;-90
2022/11/01 09:39:16;;;;;;;21.13;1.83;;;16.80;92.70;;;;;;4240001;28;20043;-90
2022/11/01 09:41:38;;;;;;;13.68;2.08;;;16.70;92.60;;;;;;4235754;28;20028;-90
2022/11/01 09:43:42;;;;;;;14.35;2.00;;;16.50;91.90;;;;;;4235274;28;20080;-91
2022/11/01 09:45:44;;;;;;;12.73;1.92;;;16.30;92.50;;;;;;4240575;28;20051;-90
2022/11/01 09:47:55;;;;;;;13.18;2.50;;;16.20;93.50;;;;;;4240053;28;20465;-90
2022/11/01 09:50:05;;;;;;;13.98;1.88;;;16.10;93.10;;;;;;4234343;28;20031;-90
2022/11/01 09:52:14;;;;;;;15.73;2.63;;;16.10;93.00;;;;;;4217203;28;20048;-90
2022/11/01 09:54:18;;;;;;;7.63;1.85;;;16.10;93.40;;;;;;4216585;28;20134;-90
2022/11/01 09:56:27;;;;;;;9.93;1.58;;;16.10;93.40;;;;;;4219260;28;20040;-90
2022/11/01 09:58:52;;;;;;;23.33;3.72;;;16.20;93.40;;;;;;4225808;28;20035;-90
2022/11/01 10:01:22;;;;;;;18.75;2.90;;;16.40;92.60;;;;;;4233003;28;20541;-90
2022/11/01 10:03:38;;;;;;;14.50;2.22;;;16.70;93.30;;;;;;4232399;28;20521;-91
2022/11/01 10:06:11;;;;;;;10.68;1.70;;;16.80;92.50;;;;;;4232149;28;20650;-91
2022/11/01 10:08:37;;;;;;;21.10;2.78;;;16.90;92.10;;;;;;4217596;28;20051;-91
2022/11/01 10:11:02;;;;;;;9.77;1.63;;;17.10;91.90;;;;;;4227516;28;20055;-92
2022/11/01 10:13:25;;;;;;;14.05;1.70;;;17.40;92.90;;;;;;4232729;28;20079;-91
2022/11/01 10:15:31;;;;;;;13.57;1.90;;;17.40;92.30;;;;;;4216222;28;20058;-89
2022/11/01 10:17:53;;;;;;;11.85;1.83;;;17.50;92.60;;;;;;4234962;28;20051;-90
2022/11/01 10:19:55;;;;;;;11.77;2.30;;;17.30;91.50;;;;;;4235192;28;20109;-90
2022/11/01 10:22:00;;;;;;;14.48;1.95;;;17.10;93.00;;;;;;4231366;28;20071;-91
2022/11/01 10:24:06;;;;;;;8.27;1.40;;;16.90;92.90;;;;;;4202219;28;20078;-91
2022/11/01 10:26:16;;;;;;;11.35;2.00;;;16.90;93.30;;;;;;4200037;28;20079;-90
2022/11/01 10:28:31;;;;;;;12.95;2.70;;;17.10;93.20;;;;;;4218161;28;20093;-91
2022/11/01 10:30:38;;;;;;;17.15;2.03;;;17.10;92.80;;;;;;4218168;28;20082;-91
2022/11/01 10:32:54;;;;;;;14.13;2.45;;;17.20;93.10;;;;;;4217264;28;20060;-89
2022/11/01 10:34:59;;;;;;;14.00;1.98;;;17.30;92.60;;;;;;4216013;28;20498;-91
2022/11/01 10:37:34;;;;;;;16.77;2.13;;;17.30;92.60;;;;;;4217147;28;20123;-90
2022/11/01 10:39:41;;;;;;;17.80;3.28;;;17.40;91.80;;;;;;4218432;28;20070;-90
2022/11/01 10:41:51;;;;;;;17.52;2.83;;;17.50;93.30;;;;;;4217892;28;20089;-91
2022/11/01 10:43:56;;;;;;;13.77;2.33;;;17.40;92.90;;;;;;4216583;28;20082;-90
2022/11/01 10:46:00;;;;;;;14.88;1.70;;;17.60;93.10;;;;;;4216617;28;20059;-90
2022/11/01 10:48:02;;;;;;;12.02;1.55;;;17.50;92.80;;;;;;4217007;28;20123;-90
2022/11/01 10:50:24;;;;;;;10.43;2.00;;;17.50;93.00;;;;;;4214162;28;20063;-91